Aeroporto :
LOGIN :

Iscrizione | Disclaimer

   EN    FR    IT 

 










Sommario :    VFR   VFR Marginale   IFR   IFR Intensivo   IFR Molto Intensivo
Visibilità : 
Base nubi : 
>= 8 km
>= 3000ft
5 / 8 km
1000 / 3000 ft
1500m / 5 km
500 / 1000 ft
800 / 1500m
200 / 500 ft
< 800m
< 200 ft
Simboli :   Temporali  Nebbia  Neve Forte  Precipitazioni Forti  Vento > 20 kt
SIGMETs :   Varie  Temporali  Ghiacco  Turbolenza  Onda orograficha  Ceneri Vulcaniche







- Altitudine del aeroporto : 17 ft
- Codice IATA : MPL
- Carte del aeroporto


LFMT - Montpellier Méditerranée

ULTIMO METAR :
  • 221100Z AUTO 04009KT CAVOK 26/06 Q1016 BECMG 20013KT

METARs OBSOLETI :
  • 221030Z AUTO 03009KT 360V060 CAVOK 25/06 Q1016 BECMG 20013KT
  • 221000Z AUTO 02007KT 340V050 CAVOK 25/07 Q1016 NOSIG
  • 220930Z AUTO 02007KT 350V060 CAVOK 24/07 Q1016 NOSIG
  • 220900Z AUTO 03011KT CAVOK 24/06 Q1016 NOSIG
  • 220830Z AUTO 01012KT 340V040 CAVOK 24/06 Q1016 NOSIG

TAF TAF LFMT
Valido dal 22 a 09 ore il 23 a 09 ore UTC


220800Z 2209/2309 01012KT CAVOK
BECMG 2212/2214 20013KT
BECMG 2219/2222 35006KT
ATIS : +33 4 67 13 11 70
Nessun NOTAM noto per questo aeroporto.



MetMap, La meteo Aeronautica in un colpo d'occhio ! - Copyright ORBIFLY Dicembre 2007 - Disclaimer

ORBIFLY MET'MAP TEAM :

Programmazione e sviluppo : Alexandra Zaïnal
Concezione e sviluppo : Baudouin d'Aumeries
Co-Programmazione e sviluppo : Marc-Olivier Méhu
Supporto tecnico e logistico : Manuel Goepfert
Aiuto per la traduzione : Arnaldo La Scala

Contatto : metmap@orbifly.com




FONTI E CREDITI :

   NOAA